Carlton, AL (36515)

3:58 PM CDT on June 03, 2015 (GMT -0500)
Jackson, AL | | Change Station
CLOSE
Current Station
Personal Weather Station
Location: Jackson, AL
Elevation: 53 ft
Nearby Weather Stations

Elev 53 ft 31.49 °N, 87.90 °W | Updated 9 seconds ago

Partly Cloudy
Partly Cloudy
84.7 °F
Feels Like 88 °F
N
0.0
Wind Variable Wind from West
Gusts 0.0 mph

Today
High -- | Low -- °F
--% Chance of Precip.
Yesterday
High -- | Low -- °F
Precip. -- in
5:47 AM 7:51 PM
Full, 98% visible
Pressure 29.89 in
Visibility 10.0 miles
Clouds Scattered Clouds 6000 ft
Heat Index 88 °F
Dew Point 68 °F
Humidity 58%
Rainfall 0.00 in
Snow Depth Not available.
UV 6 out of 12
Pollen 4.10 out of 12
Air Quality Not available.
Flu Activity Sporadic
METAR KGZH 032053Z AUTO 02003KT 10SM SCT060 29/18 A2990 RMK AO2 SLP120 T02940183 56017

More Conditions Fewer Conditions

Pressure 29.89 in
Visibility 10.0 miles
Clouds Scattered Clouds 6000 ft
Heat Index 88 °F
Dew Point 68 °F
Humidity 58%
Rainfall 0.00 in
Snow Depth Not available.
UV 6 out of 12
Pollen 4.10 out of 12
Air Quality Not available.
Flu Activity Sporadic
METAR KGZH 032053Z AUTO 02003KT 10SM SCT060 29/18 A2990 RMK AO2 SLP120 T02940183 56017

More Conditions Fewer Conditions

10-Day Weather Forecast

×

Almanac

Astronomy

Jun. 03, 2015 Rise Set
Actual Time
Civil Twilight
Nautical Twilight
Astronomical Twilight
Moon
Length of Visible Light
Length of Day
Tomorrow will be .
, % of the Moon is Illuminated

Today's Extremes

State Highs State Lows

Community

WunderPhotos

Upload Photos

1,826,279 photos uploaded!

WunderBlogs® & News

Nearby

Air Quality

  Air Quality AQ Index Pollutant
Not available.

Snow Depth

Station Depth Elevation

Earthquake Activity

City Distance Mag. Time & Date
Minimum magnitude displayed is 2.5.

Coastal Water Temperatures

Place Temperature

Stations

Nearby Weather Stations

Station Location Temp. Windchill Dew Point Humidity Wind Precip. Elev Updated Type